Etzikom, Canada
Current Conditions -  °F | °C
As of 11:00 PM on Friday 28 Nov 2014 (Local Time) from CYXH Reporting Station
Light Snow Light Snow  
Wind Chill: -25°   Ceiling: 2300
Heat Index: -4°   Visibility: 1.2mi
Dew Point: -9°   Wind: 16mph
Humidity: 78%   Direction: 310°NW
Pressure: 29.76"   Gusts: NA
Location:  49.48°N, 111.1°W
Report Text: CYXH 290600Z AUTO 31014KT 1 1/4SM -SN OVC023 M20/M23 A2976 RMK SLP133
Loading
Personal Weather Stations






























Interactive Weather Map New forecast layout! Learn more

10-Day Weather Forecast

Advertisements
Track Severe Weather on mobile